createdAt,value
2023-03-01T00:01:10.799Z,49.74
2023-03-01T00:03:38.431Z,49.60
2023-03-01T00:06:06.515Z,49.64
2023-03-01T00:08:34.146Z,49.76
2023-03-01T00:11:10.891Z,49.77
2023-03-01T00:13:38.021Z,50.26
2023-03-01T00:16:06.864Z,50.13
2023-03-01T00:18:33.835Z,49.98
2023-03-01T00:21:00.871Z,50.41
2023-03-01T00:23:28.390Z,50.56
2023-03-01T00:25:55.333Z,50.39
2023-03-01T00:28:22.383Z,50.54
2023-03-01T00:30:49.187Z,50.60
2023-03-01T00:33:15.998Z,50.49
2023-03-01T00:35:42.850Z,50.29
2023-03-01T00:38:09.561Z,50.39
2023-03-01T00:40:37.492Z,50.74
2023-03-01T00:43:04.895Z,50.80
2023-03-01T00:45:34.410Z,50.76
2023-03-01T00:48:01.103Z,50.61
2023-03-01T00:50:28.407Z,50.49
2023-03-01T00:52:58.125Z,50.62
2023-03-01T00:55:25.045Z,50.33
2023-03-01T00:57:51.787Z,50.46
2023-03-01T01:00:20.120Z,50.59
2023-03-01T01:02:48.785Z,50.60
2023-03-01T01:05:15.990Z,50.76
2023-03-01T01:07:42.727Z,51.11
2023-03-01T01:10:13.796Z,51.25
2023-03-01T01:12:40.462Z,50.95
2023-03-01T01:15:07.687Z,50.91
2023-03-01T01:17:34.750Z,51.07
2023-03-01T01:20:02.317Z,51.04
2023-03-01T01:22:29.915Z,51.18
2023-03-01T01:24:56.551Z,51.34
2023-03-01T01:27:23.266Z,51.13
2023-03-01T01:29:50.022Z,51.25
2023-03-01T01:32:16.699Z,51.51
2023-03-01T01:34:43.638Z,51.63
2023-03-01T01:37:10.252Z,51.70
2023-03-01T01:39:37.022Z,51.45
2023-03-01T01:42:04.001Z,51.82
2023-03-01T01:44:30.975Z,51.90
2023-03-01T01:47:07.300Z,52.32
2023-03-01T01:49:42.815Z,52.02
2023-03-01T01:52:23.229Z,52.04
2023-03-01T01:55:01.332Z,51.86
2023-03-01T01:57:34.013Z,52.38
2023-03-01T02:00:09.108Z,52.24
2023-03-01T02:02:44.137Z,52.23
2023-03-01T02:05:18.004Z,52.18
2023-03-01T02:07:46.156Z,52.27
2023-03-01T02:10:12.803Z,52.44
2023-03-01T02:12:40.504Z,52.63
2023-03-01T02:15:07.482Z,52.33
2023-03-01T02:17:34.893Z,52.84
2023-03-01T02:20:29.278Z,53.03
2023-03-01T02:22:56.263Z,52.74
2023-03-01T02:25:39.223Z,52.68
2023-03-01T02:28:16.295Z,52.90
2023-03-01T02:31:04.151Z,52.45
2023-03-01T02:33:33.837Z,52.82
2023-03-01T02:36:09.718Z,52.78
2023-03-01T02:38:36.386Z,53.29
2023-03-01T02:41:06.130Z,52.94
2023-03-01T02:43:34.061Z,53.16
2023-03-01T02:46:07.703Z,53.10
2023-03-01T02:48:49.951Z,53.33
2023-03-01T02:51:38.617Z,53.38
2023-03-01T02:54:15.029Z,53.39
2023-03-01T02:56:43.691Z,53.51
2023-03-01T02:59:12.488Z,53.78
2023-03-01T03:01:39.217Z,53.89
2023-03-01T03:04:10.852Z,53.79
2023-03-01T03:06:38.608Z,53.80
2023-03-01T03:09:05.913Z,54.13
2023-03-01T03:11:33.355Z,54.35
2023-03-01T03:14:00.047Z,54.27
2023-03-01T03:16:27.056Z,54.28
2023-03-01T03:18:53.706Z,54.42
2023-03-01T03:21:20.460Z,54.26
2023-03-01T03:23:47.083Z,54.77
2023-03-01T03:26:14.374Z,54.76
2023-03-01T03:28:41.207Z,54.90
2023-03-01T03:31:08.959Z,55.08
2023-03-01T03:33:36.047Z,54.97
2023-03-01T03:36:02.877Z,54.79
2023-03-01T03:38:29.484Z,54.79
2023-03-01T03:41:05.207Z,54.92
2023-03-01T03:43:34.323Z,55.12
2023-03-01T03:46:01.913Z,55.32
2023-03-01T03:48:28.649Z,55.35
2023-03-01T03:50:57.010Z,55.49
2023-03-01T03:53:26.127Z,55.80
2023-03-01T03:55:53.824Z,55.79
2023-03-01T03:58:22.483Z,55.67
2023-03-01T04:00:53.272Z,55.43
2023-03-01T04:03:21.212Z,55.25
2023-03-01T04:05:48.446Z,55.28
2023-03-01T04:08:15.093Z,55.25
2023-03-01T04:10:45.418Z,55.47
2023-03-01T04:13:14.966Z,55.45
2023-03-01T04:15:44.023Z,55.38
2023-03-01T04:18:14.383Z,55.32
2023-03-01T04:20:45.871Z,55.03
2023-03-01T04:23:20.974Z,54.84
2023-03-01T04:25:55.003Z,55.16
2023-03-01T04:28:25.488Z,55.15
2023-03-01T04:30:53.736Z,55.30
2023-03-01T04:33:20.560Z,55.00
2023-03-01T04:35:50.350Z,55.15
2023-03-01T04:38:20.872Z,55.27
2023-03-01T04:40:47.590Z,55.72
2023-03-01T04:43:15.570Z,55.42
2023-03-01T04:45:42.656Z,55.19
2023-03-01T04:48:09.626Z,55.77
2023-03-01T04:50:36.884Z,55.49
2023-03-01T04:53:04.124Z,55.83
2023-03-01T04:55:31.251Z,55.67
2023-03-01T04:57:57.888Z,55.36
2023-03-01T05:00:24.981Z,56.02
2023-03-01T05:02:57.615Z,55.79
2023-03-01T05:05:33.326Z,56.18
2023-03-01T05:08:02.709Z,56.07
2023-03-01T05:10:30.754Z,55.94
2023-03-01T05:12:58.514Z,55.87
2023-03-01T05:15:26.834Z,55.99
2023-03-01T05:17:55.405Z,55.54
2023-03-01T05:20:25.865Z,56.15
2023-03-01T05:22:55.901Z,55.71
2023-03-01T05:25:23.344Z,55.72
2023-03-01T05:27:49.967Z,55.87
2023-03-01T05:30:17.609Z,55.76
2023-03-01T05:32:47.614Z,56.01
2023-03-01T05:35:15.897Z,55.79
2023-03-01T05:37:48.263Z,55.99
2023-03-01T05:40:18.991Z,55.74
2023-03-01T05:42:48.580Z,56.08
2023-03-01T05:45:16.563Z,55.80
2023-03-01T05:47:45.069Z,56.37
2023-03-01T05:50:19.921Z,55.90
2023-03-01T05:53:17.185Z,55.91
2023-03-01T05:55:45.163Z,55.87
2023-03-01T05:58:15.866Z,56.01
2023-03-01T06:00:44.187Z,56.48
2023-03-01T06:03:13.614Z,56.65
2023-03-01T06:05:41.484Z,56.32
2023-03-01T06:08:10.257Z,56.04
2023-03-01T06:10:36.961Z,56.65
2023-03-01T06:13:03.739Z,56.05
2023-03-01T06:15:30.419Z,55.91
2023-03-01T06:17:59.701Z,56.24
2023-03-01T06:20:29.054Z,55.79
2023-03-01T06:22:55.976Z,55.99
2023-03-01T06:25:25.479Z,56.13
2023-03-01T06:27:53.484Z,56.11
2023-03-01T06:30:22.613Z,55.73
2023-03-01T06:32:49.932Z,55.56
2023-03-01T06:35:18.909Z,55.27
2023-03-01T06:37:48.180Z,55.36
2023-03-01T06:40:16.279Z,55.33
2023-03-01T06:42:48.035Z,54.98
2023-03-01T06:45:14.676Z,54.96
2023-03-01T06:47:41.354Z,54.38
2023-03-01T06:50:08.780Z,54.37
2023-03-01T06:52:35.552Z,54.18
2023-03-01T06:55:02.439Z,54.11
2023-03-01T06:57:29.460Z,53.81
2023-03-01T06:59:56.378Z,53.51
2023-03-01T07:02:23.925Z,52.90
2023-03-01T07:04:51.928Z,52.72
2023-03-01T07:07:19.307Z,52.21
2023-03-01T07:09:46.751Z,51.69
2023-03-01T07:12:13.484Z,51.47
2023-03-01T07:14:40.153Z,50.89
2023-03-01T07:17:07.396Z,50.63
2023-03-01T07:19:34.040Z,49.90
2023-03-01T07:22:00.767Z,48.76
2023-03-01T07:24:27.622Z,47.88
2023-03-01T07:26:54.642Z,47.86
2023-03-01T07:29:21.463Z,45.34
2023-03-01T07:31:48.217Z,43.55
2023-03-01T07:34:15.072Z,42.13
2023-03-01T07:36:44.020Z,40.45
2023-03-01T07:39:12.054Z,39.59
2023-03-01T07:41:39.004Z,37.35
2023-03-01T07:44:05.842Z,36.29
2023-03-01T07:46:33.349Z,34.63
2023-03-01T07:49:00.212Z,33.73
2023-03-01T07:51:26.900Z,34.20
2023-03-01T07:53:53.589Z,34.89
2023-03-01T07:56:21.464Z,34.58
2023-03-01T07:58:49.896Z,33.75
2023-03-01T08:01:20.690Z,33.12
2023-03-01T08:03:47.722Z,32.44
2023-03-01T08:06:16.369Z,30.36
2023-03-01T08:08:43.379Z,31.32
2023-03-01T08:11:13.573Z,29.84
2023-03-01T08:13:40.458Z,29.88
2023-03-01T08:16:10.634Z,28.56
2023-03-01T08:18:38.778Z,28.28
2023-03-01T08:21:11.432Z,28.43
2023-03-01T08:23:39.158Z,27.83
2023-03-01T08:26:06.859Z,27.84
2023-03-01T08:28:33.807Z,27.71
2023-03-01T08:31:00.588Z,27.51
2023-03-01T08:33:27.325Z,27.05
2023-03-01T08:35:54.082Z,27.29
2023-03-01T08:38:20.753Z,27.53
2023-03-01T08:40:47.761Z,26.61
2023-03-01T08:43:14.401Z,25.53
2023-03-01T08:45:41.077Z,25.21
2023-03-01T08:48:07.847Z,25.23
2023-03-01T08:50:34.457Z,23.36
2023-03-01T08:53:01.086Z,23.29
2023-03-01T08:55:27.737Z,24.31
2023-03-01T08:57:54.430Z,23.89
2023-03-01T09:00:21.727Z,23.47
2023-03-01T09:02:48.351Z,22.81
2023-03-01T09:05:15.018Z,22.33
2023-03-01T09:07:41.629Z,22.08
2023-03-01T09:10:09.076Z,22.04
2023-03-01T09:12:35.735Z,21.21
2023-03-01T09:15:02.387Z,21.50
2023-03-01T09:17:30.428Z,21.22
2023-03-01T09:19:57.060Z,21.39
2023-03-01T09:22:23.854Z,21.07
2023-03-01T09:24:50.541Z,20.42
2023-03-01T09:27:19.684Z,21.16
2023-03-01T09:29:46.682Z,20.35
2023-03-01T09:32:13.392Z,20.38
2023-03-01T09:34:58.719Z,20.42
2023-03-01T09:37:25.421Z,19.87
2023-03-01T09:39:52.033Z,18.59
2023-03-01T09:42:18.794Z,18.53
2023-03-01T09:44:45.395Z,18.80
2023-03-01T09:47:18.029Z,18.84
2023-03-01T09:49:53.564Z,17.76
2023-03-01T09:52:29.209Z,17.20
2023-03-01T09:54:59.519Z,16.87
2023-03-01T09:57:33.764Z,16.58
2023-03-01T10:00:24.259Z,16.78
2023-03-01T10:03:00.770Z,17.06
2023-03-01T10:06:01.473Z,18.09
2023-03-01T10:08:31.925Z,17.66
2023-03-01T10:10:59.724Z,16.94
2023-03-01T10:13:53.803Z,16.31
2023-03-01T10:16:27.892Z,16.16
2023-03-01T10:19:01.301Z,15.45
2023-03-01T10:21:32.466Z,15.51
2023-03-01T10:24:25.835Z,15.83
2023-03-01T10:26:57.596Z,16.01
2023-03-01T10:29:51.389Z,15.97
2023-03-01T10:32:19.641Z,15.17
2023-03-01T10:34:46.318Z,15.83
2023-03-01T10:37:16.259Z,16.29
2023-03-01T10:40:09.112Z,16.67
2023-03-01T10:42:50.407Z,16.18
2023-03-01T10:45:37.474Z,15.66
2023-03-01T10:48:20.409Z,16.34
2023-03-01T10:50:50.112Z,15.77
2023-03-01T10:53:33.866Z,16.89
2023-03-01T10:56:04.681Z,17.39
2023-03-01T10:58:33.175Z,17.19
2023-03-01T11:01:01.295Z,16.49
2023-03-01T11:03:34.108Z,17.01
2023-03-01T11:06:07.538Z,16.17
2023-03-01T11:08:46.293Z,15.95
2023-03-01T11:11:23.882Z,15.80
2023-03-01T11:13:58.427Z,16.41
2023-03-01T11:16:26.299Z,16.09
2023-03-01T11:19:02.482Z,15.88
2023-03-01T11:21:32.884Z,16.04
2023-03-01T11:24:02.577Z,15.83
2023-03-01T11:26:32.398Z,15.31
2023-03-01T11:29:04.587Z,15.81
2023-03-01T11:31:33.078Z,14.66
2023-03-01T11:34:20.700Z,15.79
2023-03-01T11:36:55.955Z,16.32
2023-03-01T11:39:32.233Z,16.02
2023-03-01T11:42:21.292Z,16.19
2023-03-01T11:44:53.535Z,15.74
2023-03-01T11:47:47.981Z,16.10
2023-03-01T11:50:19.623Z,15.47
2023-03-01T11:53:14.691Z,16.82
2023-03-01T11:55:44.123Z,16.18
2023-03-01T11:58:28.811Z,15.84
2023-03-01T12:00:55.404Z,16.47
2023-03-01T12:03:49.756Z,16.89
2023-03-01T12:06:23.818Z,16.65
2023-03-01T12:08:59.261Z,16.34
2023-03-01T12:11:26.143Z,16.70
2023-03-01T12:14:23.043Z,17.44
2023-03-01T12:17:13.028Z,17.35
2023-03-01T12:19:48.048Z,16.67
2023-03-01T12:22:43.052Z,16.74
2023-03-01T12:25:19.727Z,17.14
2023-03-01T12:28:20.816Z,18.97
2023-03-01T12:30:56.516Z,19.69
2023-03-01T12:33:31.802Z,20.52
2023-03-01T12:36:30.041Z,21.55
2023-03-01T12:39:03.980Z,23.22
2023-03-01T12:41:39.223Z,24.06
2023-03-01T12:44:27.788Z,23.71
2023-03-01T12:47:16.117Z,24.89
2023-03-01T12:49:48.887Z,25.81
2023-03-01T12:52:25.311Z,27.36
2023-03-01T12:54:57.011Z,27.81
2023-03-01T12:57:42.143Z,29.15
2023-03-01T13:00:23.011Z,29.95
2023-03-01T13:03:20.485Z,29.79
2023-03-01T13:06:38.161Z,30.74
2023-03-01T13:09:15.135Z,31.33
2023-03-01T13:11:43.971Z,31.12
2023-03-01T13:14:25.831Z,31.80
2023-03-01T13:16:54.269Z,31.31
2023-03-01T13:19:26.265Z,31.55
2023-03-01T13:21:55.571Z,31.84
2023-03-01T13:24:40.275Z,31.03
2023-03-01T13:27:06.898Z,31.50
2023-03-01T13:29:47.772Z,31.66
2023-03-01T13:32:43.389Z,31.53
2023-03-01T13:35:20.428Z,31.35
2023-03-01T13:37:47.724Z,31.43
2023-03-01T13:40:17.828Z,31.82
2023-03-01T13:42:53.685Z,32.28
2023-03-01T13:45:40.465Z,31.97
2023-03-01T13:48:23.105Z,32.40
2023-03-01T13:50:55.624Z,32.57
2023-03-01T13:53:27.370Z,33.10
2023-03-01T13:56:01.454Z,33.50
2023-03-01T13:58:31.469Z,33.85
2023-03-01T14:01:19.639Z,34.24
2023-03-01T14:03:46.404Z,34.06
2023-03-01T14:06:19.761Z,34.18
2023-03-01T14:08:50.437Z,34.57
2023-03-01T14:11:24.762Z,34.75
2023-03-01T14:14:30.062Z,34.47
2023-03-01T14:17:29.391Z,34.49
2023-03-01T14:19:59.368Z,34.53
2023-03-01T14:22:35.469Z,34.44
2023-03-01T14:25:06.370Z,34.17
2023-03-01T14:27:42.870Z,34.46
2023-03-01T14:30:20.294Z,34.30
2023-03-01T14:32:55.713Z,34.69
2023-03-01T14:35:31.561Z,34.60
2023-03-01T14:37:58.562Z,34.71
2023-03-01T14:40:29.002Z,34.32
2023-03-01T14:42:59.408Z,34.01
2023-03-01T14:45:29.017Z,34.32
2023-03-01T14:47:59.565Z,33.72
2023-03-01T14:50:29.178Z,34.01
2023-03-01T14:53:09.012Z,34.14
2023-03-01T14:55:39.675Z,34.24
2023-03-01T14:58:10.375Z,34.46
2023-03-01T15:00:37.721Z,34.16
2023-03-01T15:03:14.217Z,34.43
2023-03-01T15:05:44.099Z,34.96
2023-03-01T15:08:20.381Z,34.92
2023-03-01T15:10:59.771Z,34.51
2023-03-01T15:13:30.072Z,34.99
2023-03-01T15:16:05.980Z,34.70
2023-03-01T15:18:33.449Z,35.07
2023-03-01T15:21:09.472Z,34.66
2023-03-01T15:23:37.766Z,34.81
2023-03-01T15:26:04.737Z,34.93
2023-03-01T15:28:35.124Z,34.82
2023-03-01T15:31:25.005Z,35.03
2023-03-01T15:33:52.514Z,35.09
2023-03-01T15:36:42.886Z,35.36
2023-03-01T15:39:31.761Z,35.53
2023-03-01T15:41:58.511Z,35.15
2023-03-01T15:44:41.595Z,35.17
2023-03-01T15:47:25.807Z,35.54
2023-03-01T15:49:55.672Z,35.12
2023-03-01T15:52:30.396Z,35.42
2023-03-01T15:55:00.418Z,35.16
2023-03-01T15:57:27.224Z,35.29
2023-03-01T15:59:54.037Z,35.10
2023-03-01T16:02:22.117Z,35.09
2023-03-01T16:04:51.642Z,35.06
2023-03-01T16:07:18.505Z,35.20
2023-03-01T16:09:45.163Z,35.01
2023-03-01T16:12:17.395Z,35.41
2023-03-01T16:14:44.354Z,35.33
2023-03-01T16:17:11.290Z,35.62
2023-03-01T16:19:38.902Z,35.54
2023-03-01T16:22:05.776Z,35.40
2023-03-01T16:24:32.490Z,35.43
2023-03-01T16:26:59.122Z,35.43
2023-03-01T16:29:25.812Z,35.94
2023-03-01T16:31:52.574Z,35.38
2023-03-01T16:34:22.703Z,35.51
2023-03-01T16:36:50.107Z,35.20
2023-03-01T16:39:17.667Z,35.58
2023-03-01T16:41:44.512Z,36.01
2023-03-01T16:44:11.278Z,35.98
2023-03-01T16:46:38.255Z,36.26
2023-03-01T16:49:05.032Z,35.68
2023-03-01T16:51:32.454Z,36.19
2023-03-01T16:53:59.239Z,36.03
2023-03-01T16:56:25.951Z,35.82
2023-03-01T16:58:52.582Z,36.31
2023-03-01T17:01:21.262Z,36.00
2023-03-01T17:03:49.569Z,36.47
2023-03-01T17:06:21.115Z,36.19
2023-03-01T17:08:47.921Z,36.17
2023-03-01T17:11:17.203Z,36.60
2023-03-01T17:13:44.934Z,36.36
2023-03-01T17:16:15.319Z,36.14
2023-03-01T17:18:42.425Z,36.39
2023-03-01T17:21:10.347Z,36.05
2023-03-01T17:23:40.049Z,36.45
2023-03-01T17:26:07.590Z,36.79
2023-03-01T17:28:36.339Z,36.70
2023-03-01T17:31:05.424Z,36.30
2023-03-01T17:33:32.890Z,36.81
2023-03-01T17:36:00.435Z,36.59
2023-03-01T17:38:27.740Z,37.25
2023-03-01T17:40:54.607Z,36.56
2023-03-01T17:43:21.579Z,36.79
2023-03-01T17:45:50.576Z,36.88
2023-03-01T17:48:17.341Z,37.35
2023-03-01T17:50:44.124Z,37.31
2023-03-01T17:53:11.705Z,37.49
2023-03-01T17:55:40.519Z,37.36
2023-03-01T17:58:08.750Z,37.71
2023-03-01T18:00:35.574Z,37.42
2023-03-01T18:03:02.988Z,37.89
2023-03-01T18:05:38.037Z,38.01
2023-03-01T18:08:05.316Z,38.05
2023-03-01T18:10:33.314Z,37.63
2023-03-01T18:13:00.022Z,38.55
2023-03-01T18:15:27.357Z,38.64
2023-03-01T18:17:54.009Z,38.92
2023-03-01T18:20:21.001Z,38.92
2023-03-01T18:22:48.838Z,38.87
2023-03-01T18:25:15.595Z,38.67
2023-03-01T18:27:42.348Z,38.84
2023-03-01T18:30:09.786Z,39.18
2023-03-01T18:32:36.538Z,39.39
2023-03-01T18:35:03.467Z,39.25
2023-03-01T18:37:30.217Z,39.15
2023-03-01T18:39:57.110Z,39.05
2023-03-01T18:42:24.339Z,39.02
2023-03-01T18:44:51.481Z,39.43
2023-03-01T18:47:18.150Z,39.83
2023-03-01T18:49:44.783Z,39.97
2023-03-01T18:52:11.666Z,39.91
2023-03-01T18:54:38.379Z,40.39
2023-03-01T18:57:05.106Z,40.22
2023-03-01T18:59:32.453Z,40.50
2023-03-01T19:01:59.258Z,40.10
2023-03-01T19:04:26.879Z,40.43
2023-03-01T19:06:53.998Z,40.41
2023-03-01T19:09:21.045Z,40.59
2023-03-01T19:11:47.793Z,40.79
2023-03-01T19:14:14.449Z,40.69
2023-03-01T19:16:41.249Z,40.88
2023-03-01T19:19:09.921Z,40.59
2023-03-01T19:21:37.084Z,40.80
2023-03-01T19:24:04.487Z,40.69
2023-03-01T19:26:32.294Z,41.00
2023-03-01T19:28:59.714Z,40.99
2023-03-01T19:31:29.308Z,41.71
2023-03-01T19:34:09.870Z,41.67
2023-03-01T19:36:38.241Z,41.47
2023-03-01T19:39:06.761Z,41.74
2023-03-01T19:41:33.930Z,41.12
2023-03-01T19:44:05.727Z,41.79
2023-03-01T19:46:33.976Z,42.09
2023-03-01T19:49:02.933Z,41.94
2023-03-01T19:51:33.157Z,41.97
2023-03-01T19:53:59.941Z,41.64
2023-03-01T19:56:26.709Z,41.62
2023-03-01T19:59:00.174Z,41.82
2023-03-01T20:01:32.823Z,42.12
2023-03-01T20:04:00.475Z,42.25
2023-03-01T20:06:29.745Z,42.09
2023-03-01T20:08:56.626Z,42.49
2023-03-01T20:11:23.356Z,42.57
2023-03-01T20:13:50.034Z,42.30
2023-03-01T20:16:18.574Z,42.52
2023-03-01T20:18:45.618Z,42.25
2023-03-01T20:21:23.654Z,42.62
2023-03-01T20:23:51.272Z,42.11
2023-03-01T20:26:19.778Z,42.46
2023-03-01T20:28:48.393Z,42.77
2023-03-01T20:31:16.960Z,42.45
2023-03-01T20:33:43.694Z,42.20
2023-03-01T20:36:10.604Z,42.88
2023-03-01T20:38:38.139Z,42.91
2023-03-01T20:41:12.651Z,42.76
2023-03-01T20:43:41.586Z,42.81
2023-03-01T20:46:15.032Z,42.71
2023-03-01T20:48:45.130Z,43.20
2023-03-01T20:51:13.582Z,42.98
2023-03-01T20:53:40.936Z,42.91
2023-03-01T20:56:10.985Z,42.93
2023-03-01T20:58:38.684Z,43.08
2023-03-01T21:01:06.370Z,43.18
2023-03-01T21:03:33.982Z,42.92
2023-03-01T21:06:02.844Z,43.17
2023-03-01T21:08:30.554Z,43.15
2023-03-01T21:10:58.561Z,43.26
2023-03-01T21:13:26.862Z,43.05
2023-03-01T21:15:54.290Z,43.15
2023-03-01T21:18:21.591Z,43.35
2023-03-01T21:20:48.659Z,43.34
2023-03-01T21:23:15.415Z,43.38
2023-03-01T21:25:42.450Z,43.82
2023-03-01T21:28:09.159Z,43.72
2023-03-01T21:30:35.901Z,43.26
2023-03-01T21:33:02.583Z,43.59
2023-03-01T21:35:29.252Z,43.72
2023-03-01T21:37:55.944Z,43.68
2023-03-01T21:40:22.558Z,44.13
2023-03-01T21:42:49.666Z,44.22
2023-03-01T21:45:16.410Z,44.13
2023-03-01T21:47:43.233Z,44.21
2023-03-01T21:50:10.660Z,44.08
2023-03-01T21:52:37.324Z,43.86
2023-03-01T21:55:04.304Z,44.22
2023-03-01T21:57:31.008Z,44.57
2023-03-01T21:59:57.892Z,44.17
2023-03-01T22:02:24.595Z,44.17
2023-03-01T22:04:57.463Z,44.24
2023-03-01T22:07:24.210Z,44.83
2023-03-01T22:09:50.994Z,44.63
2023-03-01T22:12:17.646Z,44.28
2023-03-01T22:14:44.319Z,44.78
2023-03-01T22:17:10.960Z,44.52
2023-03-01T22:19:37.679Z,44.59
2023-03-01T22:22:04.349Z,44.54
2023-03-01T22:24:30.997Z,44.75
2023-03-01T22:26:57.732Z,44.49
2023-03-01T22:29:27.621Z,45.22
2023-03-01T22:31:55.895Z,44.63
2023-03-01T22:34:22.904Z,45.25
2023-03-01T22:36:50.335Z,45.19
2023-03-01T22:39:20.228Z,45.11
2023-03-01T22:41:48.431Z,45.20
2023-03-01T22:44:18.350Z,45.28
2023-03-01T22:46:45.149Z,45.53
2023-03-01T22:49:11.926Z,45.37
2023-03-01T22:51:41.292Z,45.63
2023-03-01T22:54:09.577Z,45.52
2023-03-01T22:56:37.569Z,45.44
2023-03-01T22:59:08.669Z,45.18
2023-03-01T23:01:36.961Z,45.32
2023-03-01T23:04:03.949Z,45.64
2023-03-01T23:06:31.667Z,45.95
2023-03-01T23:09:00.585Z,45.53
2023-03-01T23:11:28.499Z,45.52
2023-03-01T23:13:55.861Z,46.01
2023-03-01T23:16:26.253Z,46.15
2023-03-01T23:18:55.818Z,46.34
2023-03-01T23:21:23.013Z,46.17
2023-03-01T23:23:50.302Z,46.76
2023-03-01T23:26:17.834Z,46.60
2023-03-01T23:28:44.759Z,46.17
2023-03-01T23:31:14.456Z,46.71
2023-03-01T23:33:44.303Z,46.04
2023-03-01T23:36:15.651Z,46.51
2023-03-01T23:38:42.838Z,46.64
2023-03-01T23:41:14.475Z,47.26
2023-03-01T23:43:45.643Z,47.09
2023-03-01T23:46:15.196Z,46.83
2023-03-01T23:48:43.560Z,46.81
2023-03-01T23:51:11.635Z,46.92
2023-03-01T23:53:42.714Z,47.04
2023-03-01T23:56:13.326Z,46.99
2023-03-01T23:58:39.984Z,47.62
